Fortunia — V2OG3 — position and weather

sailwx.info

Track history (hours):
 
Tides and Currents Weather Stations Pressure Air Temp Water Temp Dewpoint Dewpoint Depression Visibility Wind Speed Wind Dir Waves Ship Positions

Fortunia

Last reported at 2014-Sep-01 21:07 UTC. Time now 2014-Sep-01 23:51 UTC.
Position N 41°21' E 002°10'.

Length 121 m; draft 6.6 m.

Type: Ship. MMSI: 304010638.

Date/timePositionNaut miles runAvg speedWind from/ knotsBaromVisibWave heightAir tempDewpointWater temp
2014-Sep-01 21:07N 41°21' E 002°10'3 0.3
2014-Sep-01 12:20N 41°19' E 002°10'3 0.1
2014-Aug-31 11:32N 41°16' E 002°11'1111.5
2014-Aug-31 10:34N 41°07' E 002°02'1110.7
2014-Aug-31 09:33N 40°59' E 001°53'1110.4
2014-Aug-31 08:33N 40°50' E 001°45'1010.4
2014-Aug-31 07:34N 40°42' E 001°37'1111.1
2014-Aug-31 06:33N 40°33' E 001°28'1010.2
2014-Aug-31 05:33N 40°26' E 001°18'1010.2
2014-Aug-31 04:32N 40°20' E 001°07'1010.3
2014-Aug-31 03:33N 40°14' E 000°56'1010.5
2014-Aug-31 02:34N 40°08' E 000°45'1210.6
2014-Aug-31 01:23N 40°01' E 000°32'4110.6
2014-Aug-30 21:30N 39°33' W 000°07'1010.6
2014-Aug-30 20:33N 39°26' W 000°16'2 2.3
2014-Aug-30 19:33N 39°26' W 000°19'0 0.0
2014-Aug-30 18:29N 39°26' W 000°19'0 0.0
2014-Aug-30 17:32N 39°26' W 000°19'0 0.0
2014-Aug-30 16:28N 39°26' W 000°19'0 0.0
2014-Aug-30 15:33N 39°26' W 000°19'64 8.1
2014-Aug-30 07:33N 38°27' E 000°15'1110.9
2014-Aug-30 06:33N 38°18' E 000°07'20 9.8
2014-Aug-30 04:31N 38°02' W 000°07'20 9.8
2014-Aug-30 02:30N 37°45' W 000°21'1010.1
2014-Aug-30 01:33N 37°37' W 000°27'13 9.2
2014-Aug-30 00:08N 37°30' W 000°41'610.3
2014-Aug-29 23:32N 37°31' W 000°49'5 0.5
2014-Aug-29 12:28N 37°32' W 000°56'1011.4
2014-Aug-29 11:33N 37°29' W 000°43'1111.4
2014-Aug-29 10:33N 37°27' W 000°29'1211.4
2014-Aug-29 09:32N 37°24' W 000°14'1111.6
2014-Aug-29 08:33N 37°22' W 000°00'1211.6
2014-Aug-29 07:33N 37°20' E 000°14'1211.5
2014-Aug-29 06:33N 37°18' E 000°28'1211.5
2014-Aug-29 05:33N 37°15' E 000°42'1111.4
2014-Aug-29 04:33N 37°13' E 000°56'2511.7
2014-Aug-29 02:23N 37°07' E 001°27'1411.5
2014-Aug-29 01:08N 37°05' E 001°45'611.3
2014-Aug-29 00:33N 37°03' E 001°53'1211.6
2014-Aug-28 23:32N 37°01' E 002°07'1111.5
2014-Aug-28 22:33N 36°59' E 002°21'1111.0
2014-Aug-28 21:31N 36°57' E 002°35'1110.7
2014-Aug-28 20:32N 36°55' E 002°48'1111.4
2014-Aug-28 19:33N 36°51' E 003°02'6 5.0
2014-Aug-28 18:21N 36°46' E 003°04'0 0.0
2014-Aug-28 17:21N 36°46' E 003°04'0 0.0
2014-Aug-28 16:29N 36°46' E 003°04'0 0.0
2014-Aug-28 15:32N 36°46' E 003°04'0 0.0
2014-Aug-28 14:31N 36°46' E 003°04'0 0.0
2014-Aug-28 13:31N 36°46' E 003°04'0 0.0
2014-Aug-28 12:27N 36°46' E 003°04'0 0.0
2014-Aug-28 11:30N 36°46' E 003°04'0 0.0
2014-Aug-28 10:33N 36°46' E 003°04'0 0.0
2014-Aug-28 09:29N 36°46' E 003°04'0 0.0
2014-Aug-28 08:32N 36°46' E 003°04'0 0.0
2014-Aug-28 06:13N 36°46' E 003°04'0 0.0
2014-Aug-28 04:33N 36°46' E 003°04'0 0.0
2014-Aug-27 22:24N 36°46' E 003°04'0 0.0
2014-Aug-27 20:33N 36°46' E 003°04'0 0.0
2014-Aug-27 19:32N 36°46' E 003°04'0 0.0
2014-Aug-27 18:32N 36°46' E 003°04'0 0.0
2014-Aug-27 17:22N 36°46' E 003°04'0 0.0
2014-Aug-27 16:28N 36°46' E 003°04'0 0.0
2014-Aug-27 15:33N 36°46' E 003°04'0 0.0
2014-Aug-27 14:24N 36°46' E 003°04'0 0.0
2014-Aug-27 13:30N 36°46' E 003°04'0 0.0
2014-Aug-27 03:10N 36°46' E 003°04'0 0.0
2014-Aug-27 02:32N 36°46' E 003°04'0 0.0
2014-Aug-27 01:27N 36°46' E 003°04'0 0.0
2014-Aug-27 00:24N 36°46' E 003°04'0 0.0
2014-Aug-26 23:33N 36°46' E 003°04'0 0.0
2014-Aug-26 22:23N 36°46' E 003°04'0 0.0
2014-Aug-26 21:29N 36°46' E 003°04'0 0.0
2014-Aug-26 20:31N 36°46' E 003°04'0 0.0
2014-Aug-26 19:31N 36°46' E 003°04'0 0.0
2014-Aug-26 18:27N 36°46' E 003°04'0 0.0
2014-Aug-26 17:30N 36°46' E 003°04'0 0.0
2014-Aug-26 13:16N 36°46' E 003°04'0 0.0
2014-Aug-26 12:31N 36°46' E 003°04'0 0.0
2014-Aug-26 11:33N 36°46' E 003°04'0 0.0
2014-Aug-26 10:33N 36°46' E 003°04'0 0.0
2014-Aug-26 09:30N 36°46' E 003°04'0 0.0
2014-Aug-26 07:17N 36°46' E 003°04'0 0.0
2014-Aug-26 04:21N 36°46' E 003°04'0 0.0
2014-Aug-26 03:33N 36°46' E 003°04'0 0.0
2014-Aug-26 00:23N 36°46' E 003°04'0 0.0
2014-Aug-25 23:33N 36°46' E 003°04'2 2.4
2014-Aug-25 22:33N 36°46' E 003°07'0 0.0
2014-Aug-25 14:32N 36°46' E 003°07'0 0.0
2014-Aug-25 12:04N 36°46' E 003°07'0 0.0
2014-Aug-25 11:28N 36°46' E 003°07'0 0.0
2014-Aug-25 08:20N 36°46' E 003°07'0 0.0
2014-Aug-25 06:25N 36°46' E 003°07'0 0.0
2014-Aug-24 23:16N 36°46' E 003°07'0 0.0
2014-Aug-24 22:26N 36°46' E 003°07'0 0.0
2014-Aug-24 20:33N 36°46' E 003°07'0 0.0
2014-Aug-24 19:33N 36°46' E 003°07'0 0.0
2014-Aug-24 16:25N 36°46' E 003°07'0 0.0
2014-Aug-24 12:05N 36°46' E 003°07'0 0.0
2014-Aug-24 11:05N 36°46' E 003°07'117 9.4
2014-Aug-23 22:33N 38°39' E 002°26'1111.0
2014-Aug-23 21:33N 38°49' E 002°22'1111.1
2014-Aug-23 20:33N 39°00' E 002°21'1110.8
2014-Aug-23 19:34N 39°11' E 002°18'129 7.0
2014-Aug-23 01:14N 41°20' E 002°10'  
Track history (hours):
 
Tides and Currents Weather Stations Pressure Air Temp Water Temp Dewpoint Dewpoint Depression Visibility Wind Speed Wind Dir Waves Ship Positions

Fortunia

Last reported at 2014-Sep-01 21:07 UTC. Time now 2014-Sep-01 23:51 UTC.
Position N 41°21' E 002°10'.

Length 121 m; draft 6.6 m.

Type: Ship. MMSI: 304010638.

Date/timePositionNaut miles runAvg speedWind from/ knotsBaromVisibWave heightAir tempDewpointWater temp
2014-Sep-01 21:07N 41°21' E 002°10'3 0.3
2014-Sep-01 12:20N 41°19' E 002°10'3 0.1
2014-Aug-31 11:32N 41°16' E 002°11'1111.5
2014-Aug-31 10:34N 41°07' E 002°02'1110.7
2014-Aug-31 09:33N 40°59' E 001°53'1110.4
2014-Aug-31 08:33N 40°50' E 001°45'1010.4
2014-Aug-31 07:34N 40°42' E 001°37'1111.1
2014-Aug-31 06:33N 40°33' E 001°28'1010.2
2014-Aug-31 05:33N 40°26' E 001°18'1010.2
2014-Aug-31 04:32N 40°20' E 001°07'1010.3
2014-Aug-31 03:33N 40°14' E 000°56'1010.5
2014-Aug-31 02:34N 40°08' E 000°45'1210.6
2014-Aug-31 01:23N 40°01' E 000°32'4110.6
2014-Aug-30 21:30N 39°33' W 000°07'1010.6
2014-Aug-30 20:33N 39°26' W 000°16'2 2.3
2014-Aug-30 19:33N 39°26' W 000°19'0 0.0
2014-Aug-30 18:29N 39°26' W 000°19'0 0.0
2014-Aug-30 17:32N 39°26' W 000°19'0 0.0
2014-Aug-30 16:28N 39°26' W 000°19'0 0.0
2014-Aug-30 15:33N 39°26' W 000°19'64 8.1
2014-Aug-30 07:33N 38°27' E 000°15'1110.9
2014-Aug-30 06:33N 38°18' E 000°07'20 9.8
2014-Aug-30 04:31N 38°02' W 000°07'20 9.8
2014-Aug-30 02:30N 37°45' W 000°21'1010.1
2014-Aug-30 01:33N 37°37' W 000°27'13 9.2
2014-Aug-30 00:08N 37°30' W 000°41'610.3
2014-Aug-29 23:32N 37°31' W 000°49'5 0.5
2014-Aug-29 12:28N 37°32' W 000°56'1011.4
2014-Aug-29 11:33N 37°29' W 000°43'1111.4
2014-Aug-29 10:33N 37°27' W 000°29'1211.4
2014-Aug-29 09:32N 37°24' W 000°14'1111.6
2014-Aug-29 08:33N 37°22' W 000°00'1211.6
2014-Aug-29 07:33N 37°20' E 000°14'1211.5
2014-Aug-29 06:33N 37°18' E 000°28'1211.5
2014-Aug-29 05:33N 37°15' E 000°42'1111.4
2014-Aug-29 04:33N 37°13' E 000°56'2511.7
2014-Aug-29 02:23N 37°07' E 001°27'1411.5
2014-Aug-29 01:08N 37°05' E 001°45'611.3
2014-Aug-29 00:33N 37°03' E 001°53'1211.6
2014-Aug-28 23:32N 37°01' E 002°07'1111.5
2014-Aug-28 22:33N 36°59' E 002°21'1111.0
2014-Aug-28 21:31N 36°57' E 002°35'1110.7
2014-Aug-28 20:32N 36°55' E 002°48'1111.4
2014-Aug-28 19:33N 36°51' E 003°02'6 5.0
2014-Aug-28 18:21N 36°46' E 003°04'0 0.0
2014-Aug-28 17:21N 36°46' E 003°04'0 0.0
2014-Aug-28 16:29N 36°46' E 003°04'0 0.0
2014-Aug-28 15:32N 36°46' E 003°04'0 0.0
2014-Aug-28 14:31N 36°46' E 003°04'0 0.0
2014-Aug-28 13:31N 36°46' E 003°04'0 0.0
2014-Aug-28 12:27N 36°46' E 003°04'0 0.0
2014-Aug-28 11:30N 36°46' E 003°04'0 0.0
2014-Aug-28 10:33N 36°46' E 003°04'0 0.0
2014-Aug-28 09:29N 36°46' E 003°04'0 0.0
2014-Aug-28 08:32N 36°46' E 003°04'0 0.0
2014-Aug-28 06:13N 36°46' E 003°04'0 0.0
2014-Aug-28 04:33N 36°46' E 003°04'0 0.0
2014-Aug-27 22:24N 36°46' E 003°04'0 0.0
2014-Aug-27 20:33N 36°46' E 003°04'0 0.0
2014-Aug-27 19:32N 36°46' E 003°04'0 0.0
2014-Aug-27 18:32N 36°46' E 003°04'0 0.0
2014-Aug-27 17:22N 36°46' E 003°04'0 0.0
2014-Aug-27 16:28N 36°46' E 003°04'0 0.0
2014-Aug-27 15:33N 36°46' E 003°04'0 0.0
2014-Aug-27 14:24N 36°46' E 003°04'0 0.0
2014-Aug-27 13:30N 36°46' E 003°04'0 0.0
2014-Aug-27 03:10N 36°46' E 003°04'0 0.0
2014-Aug-27 02:32N 36°46' E 003°04'0 0.0
2014-Aug-27 01:27N 36°46' E 003°04'0 0.0
2014-Aug-27 00:24N 36°46' E 003°04'0 0.0
2014-Aug-26 23:33N 36°46' E 003°04'0 0.0
2014-Aug-26 22:23N 36°46' E 003°04'0 0.0
2014-Aug-26 21:29N 36°46' E 003°04'0 0.0
2014-Aug-26 20:31N 36°46' E 003°04'0 0.0
2014-Aug-26 19:31N 36°46' E 003°04'0 0.0
2014-Aug-26 18:27N 36°46' E 003°04'0 0.0
2014-Aug-26 17:30N 36°46' E 003°04'0 0.0
2014-Aug-26 13:16N 36°46' E 003°04'0 0.0
2014-Aug-26 12:31N 36°46' E 003°04'0 0.0
2014-Aug-26 11:33N 36°46' E 003°04'0 0.0
2014-Aug-26 10:33N 36°46' E 003°04'0 0.0
2014-Aug-26 09:30N 36°46' E 003°04'0 0.0
2014-Aug-26 07:17N 36°46' E 003°04'0 0.0
2014-Aug-26 04:21N 36°46' E 003°04'0 0.0
2014-Aug-26 03:33N 36°46' E 003°04'0 0.0
2014-Aug-26 00:23N 36°46' E 003°04'0 0.0
2014-Aug-25 23:33N 36°46' E 003°04'2 2.4
2014-Aug-25 22:33N 36°46' E 003°07'0 0.0
2014-Aug-25 14:32N 36°46' E 003°07'0 0.0
2014-Aug-25 12:04N 36°46' E 003°07'0 0.0
2014-Aug-25 11:28N 36°46' E 003°07'0 0.0
2014-Aug-25 08:20N 36°46' E 003°07'0 0.0
2014-Aug-25 06:25N 36°46' E 003°07'0 0.0
2014-Aug-24 23:16N 36°46' E 003°07'0 0.0
2014-Aug-24 22:26N 36°46' E 003°07'0 0.0
2014-Aug-24 20:33N 36°46' E 003°07'0 0.0
2014-Aug-24 19:33N 36°46' E 003°07'0 0.0
2014-Aug-24 16:25N 36°46' E 003°07'0 0.0
2014-Aug-24 12:05N 36°46' E 003°07'0 0.0
2014-Aug-24 11:05N 36°46' E 003°07'117 9.4
2014-Aug-23 22:33N 38°39' E 002°26'1111.0
2014-Aug-23 21:33N 38°49' E 002°22'1111.1
2014-Aug-23 20:33N 39°00' E 002°21'1110.8
2014-Aug-23 19:34N 39°11' E 002°18'129 7.0
2014-Aug-23 01:14N 41°20' E 002°10'  

Dump ship's entire track history